Time;durP1;ratioP1;P1;durP2;ratioP2;P2;SDS_P1;SDS_P2;PMS_P1;PMS_P2;Temp;Humidity;BMP_temperature;BMP_pressure;BME280_temperature;BME280_humidity;BME280_pressure;Samples;Min_cycle;Max_cycle;Signal;HPM_P1;HPM_P2
2022/02/24 00:00:44;;;;;;;8.07;1.60;;;8.30;99.90;;;;;;6149942;23;20013;-88
2022/02/24 00:03:10;;;;;;;2.45;1.42;;;8.40;99.90;;;;;;6149630;23;20016;-88
2022/02/24 00:05:35;;;;;;;4.38;1.27;;;8.30;99.90;;;;;;6134295;23;20009;-89
2022/02/24 00:08:04;;;;;;;6.40;1.70;;;8.20;99.90;;;;;;6148333;23;20446;-88
2022/02/24 00:10:29;;;;;;;5.25;1.83;;;8.30;99.90;;;;;;6148367;23;20017;-89
2022/02/24 00:12:55;;;;;;;6.28;1.55;;;8.30;99.90;;;;;;6148887;23;20033;-88
2022/02/24 00:15:21;;;;;;;7.82;2.00;;;8.20;99.90;;;;;;6150305;23;20017;-88
2022/02/24 00:17:46;;;;;;;7.05;1.60;;;8.20;99.90;;;;;;6148287;23;20017;-89
2022/02/24 00:20:12;;;;;;;8.57;1.92;;;8.10;99.90;;;;;;6149319;23;20123;-88
2022/02/24 00:22:38;;;;;;;5.45;1.77;;;8.20;99.90;;;;;;6150996;23;20013;-89
2022/02/24 00:25:04;;;;;;;4.72;1.50;;;8.20;99.90;;;;;;6149195;23;20005;-89
2022/02/24 00:27:30;;;;;;;6.22;1.95;;;8.20;99.90;;;;;;6149800;23;20016;-90
2022/02/24 00:30:05;;;;;;;10.63;3.67;;;8.10;99.90;;;;;;6134053;23;20017;-89
2022/02/24 00:32:40;;;;;;;6.50;1.92;;;8.10;99.90;;;;;;6139544;23;20011;-89
2022/02/24 00:35:06;;;;;;;8.18;2.38;;;8.10;99.90;;;;;;6150408;23;20067;-89
2022/02/24 00:37:31;;;;;;;3.53;1.60;;;8.10;99.90;;;;;;6148468;23;20104;-89
2022/02/24 00:39:57;;;;;;;9.13;2.75;;;8.10;99.90;;;;;;6175020;23;20083;-89
2022/02/24 00:42:22;;;;;;;6.20;1.70;;;8.10;99.90;;;;;;6140626;23;20035;-89
2022/02/24 00:44:48;;;;;;;3.72;1.33;;;8.20;99.90;;;;;;6150005;23;20017;-89
2022/02/24 00:47:14;;;;;;;9.13;1.85;;;8.20;99.90;;;;;;6151729;23;20028;-89
2022/02/24 00:49:39;;;;;;;6.60;1.88;;;8.10;99.90;;;;;;6177237;23;20032;-89
2022/02/24 00:52:05;;;;;;;4.80;1.42;;;8.10;99.90;;;;;;6112447;23;20009;-89
2022/02/24 00:54:32;;;;;;;6.30;2.08;;;8.10;99.90;;;;;;6151925;23;20012;-89
2022/02/24 00:56:57;;;;;;;8.95;2.08;;;8.10;99.90;;;;;;6149932;23;20028;-89
2022/02/24 00:59:23;;;;;;;5.93;1.50;;;8.10;99.90;;;;;;6177122;23;20009;-87
2022/02/24 01:01:48;;;;;;;2.28;1.02;;;8.10;99.90;;;;;;6130847;23;20013;-89
2022/02/24 01:04:15;;;;;;;9.23;1.63;;;8.10;99.90;;;;;;6151492;23;20009;-89
2022/02/24 01:06:41;;;;;;;2.78;0.88;;;8.10;99.90;;;;;;6151658;23;20013;-89
2022/02/24 01:09:06;;;;;;;6.22;1.63;;;8.10;99.90;;;;;;6153166;23;20335;-88
2022/02/24 01:11:32;;;;;;;2.72;1.48;;;8.10;99.90;;;;;;6148473;23;20020;-89
2022/02/24 01:13:57;;;;;;;4.90;2.25;;;8.10;99.90;;;;;;6149908;23;20390;-90
2022/02/24 01:16:23;;;;;;;8.60;1.17;;;8.10;99.90;;;;;;6151072;23;20442;-89
2022/02/24 01:18:54;;;;;;;12.70;2.42;;;8.10;99.90;;;;;;6151410;23;20439;-89
2022/02/24 01:21:19;;;;;;;5.90;2.05;;;8.10;99.90;;;;;;6175096;23;20005;-89
2022/02/24 01:23:45;;;;;;;7.30;1.80;;;8.10;99.90;;;;;;6150481;23;20041;-89
2022/02/24 01:26:10;;;;;;;5.55;1.80;;;8.10;99.90;;;;;;6149412;23;20355;-88
2022/02/24 01:28:36;;;;;;;9.68;1.80;;;8.10;99.90;;;;;;6152044;23;20072;-89
2022/02/24 01:31:02;;;;;;;7.63;2.38;;;8.10;99.90;;;;;;6151018;23;20020;-89
2022/02/24 01:33:27;;;;;;;4.75;1.58;;;8.10;99.90;;;;;;6149783;23;20032;-90
2022/02/24 01:35:53;;;;;;;2.67;0.80;;;8.10;99.90;;;;;;6151965;23;20009;-89
2022/02/24 01:38:21;;;;;;;8.85;2.10;;;8.00;99.90;;;;;;6152042;23;20016;-88
2022/02/24 01:40:47;;;;;;;9.77;2.35;;;8.00;99.90;;;;;;6149209;23;20013;-89
2022/02/24 01:43:12;;;;;;;8.60;1.90;;;8.10;99.90;;;;;;6152683;23;20077;-90
2022/02/24 01:45:38;;;;;;;4.70;1.70;;;8.10;99.90;;;;;;6153244;23;20017;-90
2022/02/24 01:48:04;;;;;;;7.60;2.05;;;8.00;99.90;;;;;;6150011;23;20044;-89
2022/02/24 01:50:30;;;;;;;8.38;1.13;;;8.00;99.90;;;;;;6126249;23;20017;-89
2022/02/24 01:52:55;;;;;;;4.65;1.52;;;8.00;99.90;;;;;;6176771;23;20021;-88
2022/02/24 01:55:21;;;;;;;4.95;1.38;;;8.10;99.90;;;;;;6152118;23;20013;-89
2022/02/24 01:57:48;;;;;;;10.02;2.25;;;8.00;99.90;;;;;;6176818;23;20438;-89
2022/02/24 02:00:14;;;;;;;4.30;2.08;;;8.00;99.90;;;;;;6151585;23;20013;-88
2022/02/24 02:02:40;;;;;;;6.18;1.50;;;8.00;99.90;;;;;;6151405;23;20112;-89
2022/02/24 02:05:06;;;;;;;7.35;1.42;;;8.10;99.90;;;;;;6152204;23;20009;-89
2022/02/24 02:07:32;;;;;;;7.70;2.13;;;8.00;99.90;;;;;;6152031;23;20021;-89
2022/02/24 02:09:58;;;;;;;8.27;1.90;;;8.00;99.90;;;;;;6150435;23;20091;-89
2022/02/24 02:12:23;;;;;;;8.50;1.85;;;8.00;99.90;;;;;;6151357;23;20013;-88
2022/02/24 02:14:49;;;;;;;6.10;1.77;;;8.00;99.90;;;;;;6151828;23;20437;-89
2022/02/24 02:17:14;;;;;;;6.00;1.67;;;7.90;99.90;;;;;;6151400;23;20095;-89
2022/02/24 02:19:40;;;;;;;7.45;2.00;;;8.00;99.90;;;;;;6151628;23;20029;-88
2022/02/24 02:22:06;;;;;;;5.63;1.95;;;8.00;99.90;;;;;;6151198;23;20017;-89
2022/02/24 02:24:31;;;;;;;8.68;1.80;;;8.00;99.90;;;;;;6151997;23;20342;-89
2022/02/24 02:26:57;;;;;;;8.65;2.15;;;8.00;99.90;;;;;;6151364;23;20035;-88
2022/02/24 02:29:22;;;;;;;8.18;2.33;;;8.00;99.90;;;;;;6150472;23;20021;-89
2022/02/24 02:31:48;;;;;;;7.50;1.70;;;7.90;99.90;;;;;;6149441;23;20023;-89
2022/02/24 02:34:16;;;;;;;6.80;1.70;;;7.90;99.90;;;;;;6151680;23;20020;-88
2022/02/24 02:36:42;;;;;;;5.03;1.80;;;7.90;99.90;;;;;;6176844;23;20022;-88
2022/02/24 02:39:11;;;;;;;9.32;2.38;;;7.90;99.90;;;;;;6150597;23;20088;-89
2022/02/24 02:41:37;;;;;;;3.92;1.63;;;7.90;99.90;;;;;;6151710;23;20009;-89
2022/02/24 02:44:02;;;;;;;6.90;1.88;;;7.90;99.90;;;;;;6151032;23;20100;-88
2022/02/24 02:46:28;;;;;;;7.97;2.20;;;7.90;99.90;;;;;;6176756;23;20023;-89
2022/02/24 02:48:54;;;;;;;3.38;1.50;;;7.90;99.90;;;;;;6152144;23;20346;-89
2022/02/24 02:51:19;;;;;;;6.97;1.80;;;7.90;99.90;;;;;;6150580;23;20040;-88
2022/02/24 02:53:45;;;;;;;8.43;1.90;;;7.90;99.90;;;;;;6174740;23;20017;-89
2022/02/24 02:56:11;;;;;;;5.18;1.40;;;7.90;99.90;;;;;;6151363;23;20020;-89
2022/02/24 02:58:36;;;;;;;5.05;1.98;;;7.90;99.90;;;;;;6150328;23;20012;-88
2022/02/24 03:01:02;;;;;;;10.73;2.90;;;7.90;99.90;;;;;;6150591;23;20009;-89
2022/02/24 03:03:28;;;;;;;5.18;1.60;;;7.90;99.90;;;;;;6151508;23;20503;-89
2022/02/24 03:05:54;;;;;;;6.32;1.70;;;7.90;99.90;;;;;;6177047;23;20076;-89
2022/02/24 03:08:19;;;;;;;6.28;1.75;;;7.90;99.90;;;;;;6151340;23;20335;-89
2022/02/24 03:10:46;;;;;;;7.82;1.92;;;7.90;99.90;;;;;;6175048;23;20079;-90
2022/02/24 03:13:12;;;;;;;7.95;1.83;;;7.90;99.90;;;;;;6176435;23;20024;-89
2022/02/24 03:15:38;;;;;;;13.40;2.30;;;7.90;99.90;;;;;;6176897;23;20028;-89
2022/02/24 03:18:03;;;;;;;5.25;1.55;;;7.80;99.90;;;;;;6149653;23;20009;-89
2022/02/24 03:20:31;;;;;;;6.35;1.80;;;7.80;99.90;;;;;;6147818;23;20020;-90
2022/02/24 03:22:57;;;;;;;2.53;1.17;;;7.80;99.90;;;;;;6149084;23;20504;-89
2022/02/24 03:25:23;;;;;;;9.43;2.08;;;7.80;99.90;;;;;;6173866;23;20048;-89
2022/02/24 03:27:50;;;;;;;15.02;2.83;;;7.80;99.90;;;;;;6176214;23;20013;-89
2022/02/24 03:30:16;;;;;;;4.72;1.98;;;7.80;99.90;;;;;;6148852;23;20088;-89
2022/02/24 03:32:43;;;;;;;7.57;2.22;;;7.70;99.90;;;;;;6149526;23;20005;-89
2022/02/24 03:35:09;;;;;;;5.88;1.83;;;7.80;99.90;;;;;;6151677;23;20088;-89
2022/02/24 03:37:35;;;;;;;5.07;1.60;;;7.90;99.90;;;;;;6136917;23;20063;-89
2022/02/24 03:40:02;;;;;;;5.22;1.35;;;7.80;99.90;;;;;;6150275;23;20017;-89
2022/02/24 03:42:29;;;;;;;10.55;1.58;;;7.80;99.90;;;;;;6151129;23;20013;-89
2022/02/24 03:44:55;;;;;;;9.23;1.90;;;7.80;99.90;;;;;;6172905;23;20013;-89
2022/02/24 03:47:22;;;;;;;6.88;2.08;;;7.80;99.90;;;;;;6151940;23;20429;-88
2022/02/24 03:49:48;;;;;;;9.45;2.45;;;7.80;99.90;;;;;;6153146;23;20013;-87
2022/02/24 03:52:14;;;;;;;8.40;1.85;;;7.80;99.90;;;;;;6152475;23;20068;-89
2022/02/24 03:54:40;;;;;;;10.00;2.58;;;7.80;99.90;;;;;;6148849;23;20399;-89
2022/02/24 03:57:05;;;;;;;12.48;2.33;;;7.80;99.90;;;;;;6149881;23;20052;-89
2022/02/24 03:59:31;;;;;;;4.75;1.70;;;7.80;99.90;;;;;;6151562;23;20009;-89
2022/02/24 04:01:57;;;;;;;8.70;1.80;;;7.80;99.90;;;;;;6119817;23;20017;-90
2022/02/24 04:04:23;;;;;;;4.90;1.65;;;7.70;99.90;;;;;;6175021;23;20276;-89
2022/02/24 04:06:49;;;;;;;9.38;1.98;;;7.60;99.90;;;;;;6151300;23;20085;-88
2022/02/24 04:09:14;;;;;;;6.35;1.75;;;7.70;99.90;;;;;;6149735;23;20458;-89
2022/02/24 04:11:40;;;;;;;7.32;2.00;;;7.80;99.90;;;;;;6149577;23;20017;-89
2022/02/24 04:14:06;;;;;;;9.13;2.17;;;7.70;99.90;;;;;;6150460;23;20338;-89
2022/02/24 04:16:32;;;;;;;5.80;2.33;;;7.80;99.90;;;;;;6146567;23;20430;-89
2022/02/24 04:18:57;;;;;;;6.38;1.90;;;7.70;99.90;;;;;;6175463;23;20017;-89
2022/02/24 04:21:23;;;;;;;7.85;2.15;;;7.70;99.90;;;;;;6149969;23;20005;-89
2022/02/24 04:23:48;;;;;;;5.50;2.03;;;7.70;99.90;;;;;;6176055;23;20017;-89
2022/02/24 04:26:14;;;;;;;5.95;1.90;;;7.70;99.90;;;;;;6151075;23;20012;-89
2022/02/24 04:28:39;;;;;;;5.40;2.08;;;7.80;99.90;;;;;;6149663;23;20036;-89
2022/02/24 04:31:05;;;;;;;7.68;1.80;;;7.70;99.90;;;;;;6150078;23;20452;-89
2022/02/24 04:33:30;;;;;;;5.75;1.40;;;7.70;99.90;;;;;;6148426;23;20020;-89
2022/02/24 04:35:56;;;;;;;4.75;2.40;;;7.70;99.90;;;;;;6173598;23;20061;-89
2022/02/24 04:38:22;;;;;;;10.48;2.33;;;7.70;99.90;;;;;;6177989;23;20232;-88
2022/02/24 04:40:50;;;;;;;7.60;2.40;;;7.70;99.90;;;;;;6151353;23;20578;-89
2022/02/24 04:43:16;;;;;;;4.82;1.98;;;7.80;99.90;;;;;;6151528;23;20017;-89
2022/02/24 04:45:41;;;;;;;5.22;1.88;;;7.70;99.90;;;;;;6173776;23;20091;-90
2022/02/24 04:48:07;;;;;;;9.13;2.70;;;7.70;99.90;;;;;;6173938;23;20387;-89
2022/02/24 04:50:34;;;;;;;7.15;2.22;;;7.70;99.90;;;;;;6175168;23;20533;-89
2022/02/24 04:52:59;;;;;;;5.25;2.45;;;7.70;99.90;;;;;;6150986;23;20012;-89
2022/02/24 04:55:25;;;;;;;7.22;2.38;;;7.70;99.90;;;;;;6149472;23;20785;-89
2022/02/24 04:57:51;;;;;;;4.28;1.83;;;7.70;99.90;;;;;;6149983;23;20012;-89
2022/02/24 05:00:16;;;;;;;8.52;2.30;;;7.80;99.90;;;;;;6150459;23;20009;-89
2022/02/24 05:02:42;;;;;;;5.88;1.63;;;7.70;99.90;;;;;;6149243;23;20857;-89
2022/02/24 05:05:07;;;;;;;9.27;2.10;;;7.70;99.90;;;;;;6151403;23;20005;-88
2022/02/24 05:07:33;;;;;;;6.43;1.40;;;7.80;99.90;;;;;;6135125;23;20013;-89
2022/02/24 05:10:03;;;;;;;12.18;2.72;;;7.70;99.90;;;;;;6163322;23;20036;-89
2022/02/24 05:12:28;;;;;;;8.32;3.22;;;7.70;99.90;;;;;;6149778;23;20013;-89
2022/02/24 05:14:54;;;;;;;5.85;1.67;;;7.70;99.90;;;;;;6151550;23;20453;-89
2022/02/24 05:17:19;;;;;;;9.00;2.00;;;7.70;99.90;;;;;;6149794;23;20198;-89
2022/02/24 05:19:45;;;;;;;5.20;1.92;;;7.70;99.90;;;;;;6149409;23;20039;-88
2022/02/24 05:22:21;;;;;;;6.13;2.10;;;7.70;99.90;;;;;;6112521;23;20012;-89
2022/02/24 05:24:47;;;;;;;10.13;2.97;;;7.80;99.90;;;;;;6111489;23;20528;-89
2022/02/24 05:27:13;;;;;;;6.75;1.90;;;7.70;99.90;;;;;;6142685;23;20013;-89
2022/02/24 05:29:39;;;;;;;5.90;2.13;;;7.70;99.90;;;;;;6175041;23;20096;-88
2022/02/24 05:32:05;;;;;;;6.88;1.73;;;7.70;99.90;;;;;;6146232;23;20597;-89
2022/02/24 05:34:53;;;;;;;8.23;1.73;;;7.60;99.90;;;;;;6139446;23;20021;-89
2022/02/24 05:37:21;;;;;;;10.05;2.28;;;7.60;99.90;;;;;;6132107;23;20024;-88
2022/02/24 05:39:46;;;;;;;6.60;2.22;;;7.70;99.90;;;;;;6148853;23;20021;-87
2022/02/24 05:42:12;;;;;;;2.22;1.20;;;7.60;99.90;;;;;;6151891;23;20017;-88
2022/02/24 05:44:38;;;;;;;6.47;1.45;;;7.70;99.90;;;;;;6173068;23;20013;-88
2022/02/24 05:47:03;;;;;;;8.23;2.47;;;7.70;99.90;;;;;;6177453;23;20072;-88
2022/02/24 05:49:29;;;;;;;5.13;1.77;;;7.70;99.90;;;;;;6147812;23;20017;-88
2022/02/24 05:51:55;;;;;;;7.32;1.80;;;7.70;99.90;;;;;;6150298;23;20008;-88
2022/02/24 05:54:20;;;;;;;8.88;2.58;;;7.70;99.90;;;;;;6176580;23;20013;-88
2022/02/24 05:56:46;;;;;;;4.80;1.52;;;7.60;99.90;;;;;;6153059;23;20024;-87
2022/02/24 05:59:12;;;;;;;5.22;1.95;;;7.60;99.90;;;;;;6149086;23;20092;-87
2022/02/24 06:01:38;;;;;;;13.75;1.90;;;7.60;99.90;;;;;;6148106;23;20083;-88
2022/02/24 06:04:03;;;;;;;9.60;2.22;;;7.60;99.90;;;;;;6148353;23;20008;-87
2022/02/24 06:06:29;;;;;;;2.42;1.38;;;7.60;99.90;;;;;;6127620;23;20002;-88
2022/02/24 06:08:55;;;;;;;7.47;2.00;;;7.70;99.90;;;;;;6151376;23;20021;-88
2022/02/24 06:11:20;;;;;;;4.53;1.70;;;7.60;99.90;;;;;;6177900;23;20060;-88
2022/02/24 06:13:46;;;;;;;5.53;1.45;;;7.70;99.90;;;;;;6171840;23;20009;-88
2022/02/24 06:16:11;;;;;;;4.30;1.30;;;7.60;99.90;;;;;;6176852;23;20315;-88
2022/02/24 06:18:37;;;;;;;8.90;2.50;;;7.60;99.90;;;;;;6152043;23;20087;-89
2022/02/24 06:21:03;;;;;;;3.22;1.40;;;7.60;99.90;;;;;;6155623;23;20021;-89
2022/02/24 06:23:28;;;;;;;7.65;1.42;;;7.60;99.90;;;;;;6178521;23;20614;-88
2022/02/24 06:25:54;;;;;;;4.68;2.05;;;7.60;99.90;;;;;;6152304;23;20096;-88
2022/02/24 06:28:19;;;;;;;6.30;1.90;;;7.60;99.90;;;;;;6152924;23;20009;-88
2022/02/24 06:30:45;;;;;;;3.20;1.42;;;7.70;99.90;;;;;;6136823;23;20024;-88
2022/02/24 06:33:11;;;;;;;1.55;0.98;;;7.70;99.90;;;;;;6127122;23;20473;-88
2022/02/24 06:35:37;;;;;;;3.25;0.98;;;7.70;99.90;;;;;;6153361;23;20024;-88
2022/02/24 06:38:02;;;;;;;5.03;1.88;;;7.70;99.90;;;;;;6139538;23;20036;-88
2022/02/24 06:40:35;;;;;;;5.25;1.02;;;7.60;99.90;;;;;;6141197;23;20013;-89
2022/02/24 06:43:01;;;;;;;9.93;1.63;;;7.70;99.90;;;;;;6148886;23;20013;-85
2022/02/24 06:45:27;;;;;;;4.85;1.70;;;7.80;99.90;;;;;;6176855;23;20017;-84
2022/02/24 06:47:52;;;;;;;6.43;1.10;;;7.70;99.90;;;;;;6151277;23;20017;-85
2022/02/24 06:50:18;;;;;;;3.00;1.20;;;7.70;99.90;;;;;;6149700;23;20096;-85
2022/02/24 06:52:43;;;;;;;6.53;1.67;;;7.70;99.90;;;;;;6151164;23;20017;-85
2022/02/24 06:55:09;;;;;;;4.20;1.83;;;7.70;99.90;;;;;;6174188;23;20067;-85
2022/02/24 06:57:39;;;;;;;4.45;1.67;;;7.60;99.90;;;;;;6152208;23;20354;-85
2022/02/24 07:00:05;;;;;;;5.47;1.75;;;7.70;99.90;;;;;;6127822;23;20013;-86
2022/02/24 07:02:31;;;;;;;3.45;1.23;;;7.60;99.90;;;;;;6151883;23;20087;-87
2022/02/24 07:04:57;;;;;;;6.28;1.00;;;7.60;99.90;;;;;;6149440;23;20096;-87
2022/02/24 07:07:25;;;;;;;4.75;0.98;;;7.60;99.90;;;;;;6147165;23;20013;-87
2022/02/24 07:09:51;;;;;;;6.88;0.77;;;7.60;99.90;;;;;;6130876;23;20042;-87
2022/02/24 07:12:19;;;;;;;7.30;1.20;;;7.60;99.90;;;;;;6136444;23;20066;-87
2022/02/24 07:14:44;;;;;;;3.45;0.70;;;7.70;99.90;;;;;;6148898;23;20009;-88
2022/02/24 07:17:11;;;;;;;3.30;1.15;;;7.60;99.90;;;;;;6147467;23;20020;-87
2022/02/24 07:19:37;;;;;;;4.35;1.27;;;7.70;99.90;;;;;;6149826;23;20016;-87
2022/02/24 07:22:07;;;;;;;3.45;1.10;;;7.80;99.90;;;;;;6150860;23;20013;-87
2022/02/24 07:24:34;;;;;;;4.97;1.30;;;7.70;99.90;;;;;;6135604;23;20013;-86
2022/02/24 07:27:00;;;;;;;7.05;0.98;;;7.70;99.90;;;;;;6151040;23;20329;-87
2022/02/24 07:29:25;;;;;;;7.50;1.92;;;7.80;99.90;;;;;;6134919;23;20187;-87
2022/02/24 07:31:52;;;;;;;5.20;1.00;;;7.80;99.90;;;;;;6149542;23;20021;-87
2022/02/24 07:34:25;;;;;;;6.20;1.25;;;7.90;99.90;;;;;;6150242;23;20055;-87
2022/02/24 07:36:50;;;;;;;7.82;1.25;;;7.90;99.90;;;;;;6146771;23;20041;-87
2022/02/24 07:39:18;;;;;;;4.97;1.13;;;7.90;99.90;;;;;;6149549;23;20476;-87
2022/02/24 07:41:43;;;;;;;6.60;1.50;;;7.90;99.90;;;;;;6172467;23;20086;-87
2022/02/24 07:44:11;;;;;;;8.60;1.73;;;7.90;99.90;;;;;;6170687;23;20009;-88
2022/02/24 07:46:37;;;;;;;10.75;1.30;;;7.90;99.90;;;;;;6150871;23;20096;-87
2022/02/24 07:49:05;;;;;;;7.90;1.90;;;7.90;99.90;;;;;;6147655;23;20528;-87
2022/02/24 07:51:32;;;;;;;4.75;1.13;;;8.00;99.90;;;;;;6149391;23;20009;-88
2022/02/24 07:53:57;;;;;;;8.25;1.50;;;8.00;99.90;;;;;;6172646;23;20129;-87
2022/02/24 07:56:23;;;;;;;5.00;1.33;;;8.00;99.90;;;;;;6151148;23;20036;-88
2022/02/24 07:58:51;;;;;;;6.20;1.05;;;8.10;99.90;;;;;;6149632;23;20071;-88
2022/02/24 08:01:23;;;;;;;6.72;1.15;;;8.10;99.90;;;;;;6150726;23;20012;-87
2022/02/24 08:03:57;;;;;;;8.18;1.77;;;8.10;99.90;;;;;;6151775;23;20017;-87
2022/02/24 08:06:24;;;;;;;3.78;0.98;;;8.10;99.90;;;;;;6140766;23;20079;-87
2022/02/24 08:08:50;;;;;;;5.60;1.35;;;8.20;99.90;;;;;;6139227;23;20017;-88
2022/02/24 08:11:16;;;;;;;1.80;1.00;;;8.20;99.90;;;;;;6135837;23;20487;-88
2022/02/24 08:13:42;;;;;;;5.32;1.33;;;8.30;99.90;;;;;;6128063;23;20009;-87
2022/02/24 08:16:10;;;;;;;6.13;1.50;;;8.20;99.90;;;;;;6150300;23;20043;-88
2022/02/24 08:18:36;;;;;;;3.53;0.77;;;8.30;99.90;;;;;;6141315;23;20008;-88
2022/02/24 08:21:02;;;;;;;2.63;1.05;;;8.30;99.90;;;;;;6131544;23;20016;-88
2022/02/24 08:23:29;;;;;;;4.00;1.30;;;8.40;99.90;;;;;;6175976;23;20013;-88
2022/02/24 08:25:55;;;;;;;5.82;1.27;;;8.30;99.90;;;;;;6141032;23;20009;-89
2022/02/24 08:28:34;;;;;;;3.00;0.75;;;8.40;99.90;;;;;;6151871;23;20020;-88
2022/02/24 08:31:00;;;;;;;1.55;0.90;;;8.40;99.90;;;;;;6133309;23;20450;-89
2022/02/24 08:33:26;;;;;;;2.72;1.00;;;8.50;99.90;;;;;;6149892;23;20024;-87
2022/02/24 08:35:52;;;;;;;7.03;1.23;;;8.50;99.90;;;;;;6136319;23;20056;-88
2022/02/24 08:38:18;;;;;;;8.05;1.85;;;8.50;99.90;;;;;;6151665;23;20009;-87
2022/02/24 08:40:44;;;;;;;6.45;1.40;;;8.60;99.90;;;;;;6151102;23;20028;-86
2022/02/24 08:43:10;;;;;;;0.30;0.20;;;8.60;99.90;;;;;;6150490;23;20005;-87
2022/02/24 08:45:36;;;;;;;9.10;1.55;;;8.70;99.90;;;;;;6177263;23;20101;-87
2022/02/24 08:48:02;;;;;;;4.53;1.00;;;8.70;99.90;;;;;;6149024;23;20021;-87
2022/02/24 08:50:30;;;;;;;4.05;0.88;;;8.70;99.90;;;;;;6147668;23;20023;-88
2022/02/24 08:52:57;;;;;;;1.70;0.68;;;8.70;99.90;;;;;;6150213;23;20023;-87
2022/02/24 08:55:23;;;;;;;4.45;1.42;;;8.80;99.90;;;;;;6150475;23;20082;-88
2022/02/24 08:57:51;;;;;;;6.75;0.80;;;8.90;99.90;;;;;;6145544;23;20017;-87
2022/02/24 09:00:17;;;;;;;7.18;1.58;;;8.90;99.90;;;;;;6135514;23;20017;-87
2022/02/24 09:02:45;;;;;;;2.15;0.70;;;9.10;99.90;;;;;;6142951;23;20019;-87
2022/02/24 09:05:14;;;;;;;4.85;1.20;;;9.00;99.90;;;;;;6126027;23;20083;-88
2022/02/24 09:07:39;;;;;;;4.95;1.35;;;9.10;99.90;;;;;;6112466;23;20079;-87
2022/02/24 09:10:12;;;;;;;4.85;1.00;;;9.10;99.90;;;;;;6128495;23;20613;-88
2022/02/24 09:12:38;;;;;;;4.68;1.58;;;9.10;99.90;;;;;;6152626;23;20013;-88
2022/02/24 09:15:05;;;;;;;4.78;1.27;;;9.10;99.90;;;;;;6151952;23;20179;-88
2022/02/24 09:17:37;;;;;;;5.75;0.75;;;9.30;99.90;;;;;;6148700;23;20051;-88
2022/02/24 09:21:06;;;;;;;4.78;1.38;;;9.30;99.90;;;;;;6133340;23;20024;-88
2022/02/24 09:23:34;;;;;;;3.65;1.10;;;9.40;99.90;;;;;;6033363;23;20053;-87
2022/02/24 09:26:03;;;;;;;2.88;0.82;;;9.30;99.90;;;;;;6018624;23;20536;-87
2022/02/24 09:28:30;;;;;;;10.88;1.98;;;9.30;99.90;;;;;;6075493;23;20008;-88
2022/02/24 09:30:56;;;;;;;8.77;1.52;;;9.30;99.90;;;;;;6146160;23;20021;-87
2022/02/24 09:33:21;;;;;;;2.63;0.82;;;9.40;99.90;;;;;;6151168;23;20009;-88
2022/02/24 09:35:49;;;;;;;1.05;0.68;;;9.40;99.90;;;;;;6151947;23;20068;-88
2022/02/24 09:38:16;;;;;;;6.70;1.38;;;9.40;99.90;;;;;;6129816;23;20013;-88
2022/02/24 09:40:44;;;;;;;8.30;1.50;;;9.60;99.90;;;;;;6176796;23;20021;-88
2022/02/24 09:43:10;;;;;;;7.90;1.42;;;9.50;99.90;;;;;;6137902;23;20524;-88
2022/02/24 09:45:39;;;;;;;5.63;1.55;;;9.50;99.90;;;;;;6147217;23;20009;-88
2022/02/24 09:48:06;;;;;;;2.95;0.70;;;9.60;99.90;;;;;;6152799;23;20592;-88
2022/02/24 09:50:33;;;;;;;1.15;0.60;;;9.50;99.90;;;;;;6129847;23;20021;-88
2022/02/24 09:52:59;;;;;;;2.70;0.73;;;9.60;99.90;;;;;;6152666;23;20491;-88
2022/02/24 09:55:24;;;;;;;4.22;1.00;;;9.70;99.90;;;;;;6161779;23;20013;-88
2022/02/24 09:57:50;;;;;;;2.92;1.02;;;9.60;99.90;;;;;;6153643;23;20013;-88
2022/02/24 10:00:18;;;;;;;3.58;0.77;;;9.70;99.90;;;;;;6118560;23;20426;-88
2022/02/24 10:02:44;;;;;;;8.70;2.30;;;9.70;99.90;;;;;;6152165;23;20063;-88
2022/02/24 10:05:12;;;;;;;6.45;1.40;;;9.90;99.90;;;;;;6120872;23;20013;-88
2022/02/24 10:07:40;;;;;;;7.60;1.25;;;10.00;99.90;;;;;;6150865;23;20370;-88
2022/02/24 10:10:27;;;;;;;5.07;1.27;;;10.00;99.90;;;;;;6139445;23;20056;-88
2022/02/24 10:12:58;;;;;;;9.10;1.80;;;10.10;99.90;;;;;;6173128;23;20457;-88
2022/02/24 10:15:24;;;;;;;7.05;2.17;;;10.20;99.90;;;;;;6152548;23;20154;-88
2022/02/24 10:18:11;;;;;;;3.90;1.08;;;10.50;99.90;;;;;;6177072;23;20081;-88
2022/02/24 10:20:59;;;;;;;;;;;;;;;;;;;;;
2022/02/24 10:23:39;;;;;;;2.78;1.05;;;10.70;99.90;;;;;;6139115;23;20089;-88
2022/02/24 10:26:10;;;;;;;3.50;1.52;;;10.90;99.90;;;;;;6151776;23;20079;-88
2022/02/24 10:28:45;;;;;;;2.33;0.90;;;11.10;99.90;;;;;;6134922;23;20013;-88
2022/02/24 10:31:18;;;;;;;2.10;1.03;;;11.20;99.90;;;;;;6138694;23;20019;-88
2022/02/24 10:33:53;;;;;;;2.97;1.38;;;11.20;99.90;;;;;;6141985;23;20235;-87
2022/02/24 10:36:23;;;;;;;6.90;1.20;;;11.10;99.90;;;;;;6091033;23;20315;-88
2022/02/24 10:39:05;;;;;;;4.32;1.88;;;11.20;99.90;;;;;;6139575;23;20005;-88
2022/02/24 10:42:26;;;;;;;7.70;2.28;;;11.30;99.90;;;;;;6104446;23;20021;-88
2022/02/24 10:48:14;;;;;;;3.20;1.77;;;11.20;99.90;;;;;;6171918;23;20446;-88
2022/02/24 10:51:03;;;;;;;3.10;1.38;;;10.90;99.90;;;;;;6136627;23;20054;-88
2022/02/24 10:54:13;;;;;;;3.90;1.25;;;11.00;99.90;;;;;;6147420;23;20013;-87
2022/02/24 10:56:49;;;;;;;6.22;1.73;;;10.80;99.90;;;;;;6114079;23;20052;-88
2022/02/24 10:59:28;;;;;;;7.25;1.65;;;10.90;99.90;;;;;;6103303;23;20019;-87
2022/02/24 11:01:54;;;;;;;6.20;1.77;;;10.90;99.90;;;;;;6156047;23;20432;-88
2022/02/24 11:04:25;;;;;;;5.90;1.33;;;10.80;99.90;;;;;;6157604;23;20044;-88
2022/02/24 11:06:51;;;;;;;5.38;1.42;;;10.80;99.90;;;;;;6141186;23;20009;-88
2022/02/24 11:09:17;;;;;;;9.10;1.65;;;10.90;99.90;;;;;;6149369;23;20024;-86
2022/02/24 11:11:51;;;;;;;3.20;1.15;;;10.90;99.90;;;;;;6109237;23;20019;-86
2022/02/24 11:14:19;;;;;;;1.60;0.95;;;11.20;99.90;;;;;;6101651;23;20083;-86
2022/02/24 11:16:47;;;;;;;4.45;1.75;;;11.10;99.90;;;;;;6139563;23;20135;-87
2022/02/24 11:19:26;;;;;;;4.97;1.05;;;10.90;99.90;;;;;;6108771;23;20017;-88
2022/02/24 11:22:07;;;;;;;;;;;;;;;;;;;;;
2022/02/24 11:24:44;;;;;;;3.35;1.02;;;10.80;99.90;;;;;;6135699;23;20091;-87
2022/02/24 11:27:36;;;;;;;3.97;1.00;;;10.90;99.90;;;;;;6143531;23;20017;-87
2022/02/24 11:30:20;;;;;;;5.70;1.13;;;11.00;99.90;;;;;;6100865;23;20533;-89
2022/02/24 11:32:59;;;;;;;5.97;1.45;;;11.10;99.90;;;;;;6157867;23;20020;-87
2022/02/24 11:35:34;;;;;;;9.73;1.55;;;11.30;99.90;;;;;;6111602;23;20353;-88
2022/02/24 11:38:11;;;;;;;6.50;1.45;;;11.50;99.90;;;;;;6120447;23;20071;-87
2022/02/24 11:40:37;;;;;;;4.78;1.45;;;11.50;99.90;;;;;;6146612;23;20013;-87
2022/02/24 11:43:29;;;;;;;4.60;0.73;;;11.50;99.90;;;;;;6116810;23;20071;-87
2022/02/24 11:46:00;;;;;;;10.73;2.78;;;11.60;99.90;;;;;;6110774;23;20039;-88
2022/02/24 11:48:54;;;;;;;1.65;1.00;;;11.60;99.90;;;;;;6089541;23;20410;-87
2022/02/24 11:51:26;;;;;;;5.50;1.67;;;11.60;99.90;;;;;;6141210;23;20441;-88
2022/02/24 11:54:33;;;;;;;;;;;;;;;;;;;;;
2022/02/24 11:57:29;;;;;;;6.57;1.23;;;11.60;99.90;;;;;;6131062;23;20577;-89
2022/02/24 12:00:10;;;;;;;4.35;1.45;;;11.60;99.90;;;;;;6116093;23;20001;-88
2022/02/24 12:02:47;;;;;;;1.88;1.05;;;11.50;99.90;;;;;;6122639;23;20100;-88
2022/02/24 12:08:22;;;;;;;3.88;1.67;;;11.70;99.90;;;;;;6130203;23;20013;-88
2022/02/24 12:10:49;;;;;;;2.65;1.27;;;11.70;99.90;;;;;;6106660;23;20032;-87
2022/02/24 12:13:26;;;;;;;6.00;1.42;;;11.70;99.90;;;;;;6147419;23;20008;-88
2022/02/24 12:16:16;;;;;;;1.65;1.35;;;11.80;99.90;;;;;;6139739;23;20010;-88
2022/02/24 12:19:35;;;;;;;4.65;1.67;;;12.00;99.90;;;;;;6146364;23;20056;-88
2022/02/24 12:22:55;;;;;;;1.40;0.77;;;12.10;99.90;;;;;;6100761;23;20039;-87
2022/02/24 12:25:28;;;;;;;3.92;1.60;;;12.20;99.90;;;;;;6097896;23;20159;-88
2022/02/24 12:28:13;;;;;;;9.27;2.17;;;12.30;99.90;;;;;;6133834;23;20009;-89
2022/02/24 12:31:08;;;;;;;;;;;;;;;;;;;;;
2022/02/24 12:33:38;;;;;;;4.07;1.20;;;12.60;99.90;;;;;;6154354;23;21234;-88
2022/02/24 12:36:20;;;;;;;5.70;1.77;;;12.70;99.90;;;;;;6108690;23;20027;-89
2022/02/24 12:42:45;;;;;;;1.67;0.77;;;12.90;99.90;;;;;;6039587;23;20112;-87
2022/02/24 12:51:42;;;;;;;7.82;1.52;;;13.10;99.90;;;;;;6047455;23;20126;-88
2022/02/24 12:54:22;;;;;;;5.75;0.98;;;12.90;99.90;;;;;;5957089;23;20046;-88
2022/02/24 13:00:52;;;;;;;3.25;1.10;;;12.60;99.90;;;;;;6113322;23;20002;-89
2022/02/24 13:03:24;;;;;;;6.40;1.27;;;12.50;99.90;;;;;;6108906;23;20414;-88
2022/02/24 13:05:56;;;;;;;2.63;1.05;;;12.60;99.90;;;;;;6135510;23;20036;-87
2022/02/24 13:11:26;;;;;;;6.25;0.98;;;12.10;99.90;;;;;;6123525;23;20052;-88
2022/02/24 13:14:24;;;;;;;1.48;0.80;;;12.00;99.90;;;;;;6041767;23;20953;-88
2022/02/24 13:17:37;;;;;;;;;;;;;;;;;;;;;
2022/02/24 13:22:58;;;;;;;1.30;0.88;;;12.00;99.90;;;;;;6137199;23;20092;-89
2022/02/24 13:25:44;;;;;;;2.88;0.90;;;12.00;99.90;;;;;;6127338;23;20121;-89
2022/02/24 13:31:03;;;;;;;1.33;0.50;;;12.00;99.90;;;;;;6139552;23;20154;-88
2022/02/24 13:33:39;;;;;;;2.00;0.57;;;12.10;99.90;;;;;;6102511;23;20008;-88
2022/02/24 13:36:08;;;;;;;2.75;0.70;;;12.10;99.90;;;;;;6087932;23;20024;-88
2022/02/24 13:38:36;;;;;;;3.45;0.80;;;12.00;99.90;;;;;;6148560;23;20056;-88
2022/02/24 13:41:11;;;;;;;0.85;0.55;;;12.00;99.90;;;;;;6149793;23;20585;-87